sensor_id;sensor_type;location;lat;lon;timestamp;P1;durP1;ratioP1;P2;durP2;ratioP2
58222;SDS011;44020;50.890;15.796;2023-06-26T00:01:58;8.00;;;4.80;;
58222;SDS011;44020;50.890;15.796;2023-06-26T00:04:26;7.20;;;5.60;;
58222;SDS011;44020;50.890;15.796;2023-06-26T00:06:54;6.90;;;5.20;;
58222;SDS011;44020;50.890;15.796;2023-06-26T00:09:21;6.00;;;5.20;;
58222;SDS011;44020;50.890;15.796;2023-06-26T00:11:49;6.90;;;4.80;;
58222;SDS011;44020;50.890;15.796;2023-06-26T00:14:16;6.20;;;4.80;;
58222;SDS011;44020;50.890;15.796;2023-06-26T00:16:46;6.60;;;5.20;;
58222;SDS011;44020;50.890;15.796;2023-06-26T00:19:16;6.20;;;5.20;;
58222;SDS011;44020;50.890;15.796;2023-06-26T00:21:44;6.70;;;4.90;;
58222;SDS011;44020;50.890;15.796;2023-06-26T00:24:15;6.30;;;4.80;;
58222;SDS011;44020;50.890;15.796;2023-06-26T00:26:46;5.50;;;4.30;;
58222;SDS011;44020;50.890;15.796;2023-06-26T00:29:15;4.60;;;4.00;;
58222;SDS011;44020;50.890;15.796;2023-06-26T00:31:43;6.80;;;4.70;;
58222;SDS011;44020;50.890;15.796;2023-06-26T00:34:11;7.20;;;5.90;;
58222;SDS011;44020;50.890;15.796;2023-06-26T00:36:39;8.40;;;6.10;;
58222;SDS011;44020;50.890;15.796;2023-06-26T00:39:08;9.30;;;6.40;;
58222;SDS011;44020;50.890;15.796;2023-06-26T00:41:38;7.00;;;5.00;;
58222;SDS011;44020;50.890;15.796;2023-06-26T00:44:06;6.90;;;5.40;;
58222;SDS011;44020;50.890;15.796;2023-06-26T00:46:34;6.10;;;4.80;;
58222;SDS011;44020;50.890;15.796;2023-06-26T00:49:02;7.40;;;5.20;;
58222;SDS011;44020;50.890;15.796;2023-06-26T00:51:30;9.60;;;5.00;;
58222;SDS011;44020;50.890;15.796;2023-06-26T00:53:58;5.70;;;4.50;;
58222;SDS011;44020;50.890;15.796;2023-06-26T00:56:26;5.20;;;4.20;;
58222;SDS011;44020;50.890;15.796;2023-06-26T00:58:55;5.00;;;4.10;;
58222;SDS011;44020;50.890;15.796;2023-06-26T01:01:22;4.80;;;4.20;;
58222;SDS011;44020;50.890;15.796;2023-06-26T01:03:52;3.90;;;3.50;;
58222;SDS011;44020;50.890;15.796;2023-06-26T01:06:22;5.20;;;4.60;;
58222;SDS011;44020;50.890;15.796;2023-06-26T01:08:51;4.90;;;4.10;;
58222;SDS011;44020;50.890;15.796;2023-06-26T01:11:19;6.40;;;4.50;;
58222;SDS011;44020;50.890;15.796;2023-06-26T01:13:47;5.50;;;4.10;;
58222;SDS011;44020;50.890;15.796;2023-06-26T01:16:14;7.30;;;5.00;;
58222;SDS011;44020;50.890;15.796;2023-06-26T01:18:46;8.10;;;5.50;;
58222;SDS011;44020;50.890;15.796;2023-06-26T01:21:15;7.00;;;5.30;;
58222;SDS011;44020;50.890;15.796;2023-06-26T01:26:48;7.80;;;5.50;;
58222;SDS011;44020;50.890;15.796;2023-06-26T01:29:18;10.80;;;6.00;;
58222;SDS011;44020;50.890;15.796;2023-06-26T01:31:50;8.80;;;6.10;;
58222;SDS011;44020;50.890;15.796;2023-06-26T01:34:18;9.70;;;6.20;;
58222;SDS011;44020;50.890;15.796;2023-06-26T01:36:46;9.90;;;6.80;;
58222;SDS011;44020;50.890;15.796;2023-06-26T01:39:15;9.00;;;6.80;;
58222;SDS011;44020;50.890;15.796;2023-06-26T01:41:44;7.20;;;5.60;;
58222;SDS011;44020;50.890;15.796;2023-06-26T01:49:38;7.50;;;5.40;;
58222;SDS011;44020;50.890;15.796;2023-06-26T01:54:58;8.10;;;5.60;;
58222;SDS011;44020;50.890;15.796;2023-06-26T01:57:47;8.60;;;5.80;;
58222;SDS011;44020;50.890;15.796;2023-06-26T02:00:16;7.70;;;6.10;;
58222;SDS011;44020;50.890;15.796;2023-06-26T02:02:46;9.40;;;5.70;;
58222;SDS011;44020;50.890;15.796;2023-06-26T02:05:14;8.90;;;5.80;;
58222;SDS011;44020;50.890;15.796;2023-06-26T02:07:41;8.40;;;5.40;;
58222;SDS011;44020;50.890;15.796;2023-06-26T02:10:10;8.30;;;5.50;;
58222;SDS011;44020;50.890;15.796;2023-06-26T02:12:38;7.90;;;5.60;;
58222;SDS011;44020;50.890;15.796;2023-06-26T02:15:07;8.10;;;6.00;;
58222;SDS011;44020;50.890;15.796;2023-06-26T02:17:35;8.20;;;6.00;;
58222;SDS011;44020;50.890;15.796;2023-06-26T02:20:03;8.20;;;5.90;;
58222;SDS011;44020;50.890;15.796;2023-06-26T02:22:31;6.40;;;4.90;;
58222;SDS011;44020;50.890;15.796;2023-06-26T02:24:59;5.60;;;4.50;;
58222;SDS011;44020;50.890;15.796;2023-06-26T02:27:27;5.80;;;4.70;;
58222;SDS011;44020;50.890;15.796;2023-06-26T02:29:55;6.70;;;5.10;;
58222;SDS011;44020;50.890;15.796;2023-06-26T02:32:22;6.50;;;4.60;;
58222;SDS011;44020;50.890;15.796;2023-06-26T02:34:50;5.40;;;4.30;;
58222;SDS011;44020;50.890;15.796;2023-06-26T02:37:21;8.10;;;4.90;;
58222;SDS011;44020;50.890;15.796;2023-06-26T02:39:49;7.30;;;4.70;;
58222;SDS011;44020;50.890;15.796;2023-06-26T02:42:16;5.70;;;4.80;;
58222;SDS011;44020;50.890;15.796;2023-06-26T02:44:43;7.10;;;4.40;;
58222;SDS011;44020;50.890;15.796;2023-06-26T02:47:11;6.70;;;4.80;;
58222;SDS011;44020;50.890;15.796;2023-06-26T02:49:39;7.50;;;4.90;;
58222;SDS011;44020;50.890;15.796;2023-06-26T02:52:06;9.20;;;4.70;;
58222;SDS011;44020;50.890;15.796;2023-06-26T02:54:34;5.70;;;4.60;;
58222;SDS011;44020;50.890;15.796;2023-06-26T02:57:02;5.40;;;4.70;;
58222;SDS011;44020;50.890;15.796;2023-06-26T02:59:29;6.50;;;4.70;;
58222;SDS011;44020;50.890;15.796;2023-06-26T03:01:57;8.20;;;4.70;;
58222;SDS011;44020;50.890;15.796;2023-06-26T03:04:25;8.50;;;4.30;;
58222;SDS011;44020;50.890;15.796;2023-06-26T03:06:52;11.30;;;5.60;;
58222;SDS011;44020;50.890;15.796;2023-06-26T03:09:19;8.50;;;5.70;;
58222;SDS011;44020;50.890;15.796;2023-06-26T03:11:47;8.10;;;5.70;;
58222;SDS011;44020;50.890;15.796;2023-06-26T03:14:15;8.50;;;5.70;;
58222;SDS011;44020;50.890;15.796;2023-06-26T03:16:43;9.40;;;5.50;;
58222;SDS011;44020;50.890;15.796;2023-06-26T03:19:11;8.60;;;5.90;;
58222;SDS011;44020;50.890;15.796;2023-06-26T03:21:38;9.10;;;5.60;;
58222;SDS011;44020;50.890;15.796;2023-06-26T03:24:07;8.80;;;5.80;;
58222;SDS011;44020;50.890;15.796;2023-06-26T03:26:34;7.20;;;5.00;;
58222;SDS011;44020;50.890;15.796;2023-06-26T03:29:01;7.90;;;5.70;;
58222;SDS011;44020;50.890;15.796;2023-06-26T03:31:29;6.80;;;5.00;;
58222;SDS011;44020;50.890;15.796;2023-06-26T03:33:56;7.70;;;5.20;;
58222;SDS011;44020;50.890;15.796;2023-06-26T03:36:24;10.30;;;6.00;;
58222;SDS011;44020;50.890;15.796;2023-06-26T03:38:52;6.70;;;5.40;;
58222;SDS011;44020;50.890;15.796;2023-06-26T03:41:23;6.30;;;5.00;;
58222;SDS011;44020;50.890;15.796;2023-06-26T03:43:51;6.50;;;5.00;;
58222;SDS011;44020;50.890;15.796;2023-06-26T03:46:19;6.70;;;5.00;;
58222;SDS011;44020;50.890;15.796;2023-06-26T03:48:46;7.90;;;5.00;;
58222;SDS011;44020;50.890;15.796;2023-06-26T03:51:14;6.80;;;4.40;;
58222;SDS011;44020;50.890;15.796;2023-06-26T03:53:42;7.70;;;4.90;;
58222;SDS011;44020;50.890;15.796;2023-06-26T03:56:09;6.90;;;5.00;;
58222;SDS011;44020;50.890;15.796;2023-06-26T03:58:37;7.30;;;5.10;;
58222;SDS011;44020;50.890;15.796;2023-06-26T04:01:04;7.10;;;5.40;;
58222;SDS011;44020;50.890;15.796;2023-06-26T04:03:31;10.00;;;5.80;;
58222;SDS011;44020;50.890;15.796;2023-06-26T04:06:00;7.40;;;5.00;;
58222;SDS011;44020;50.890;15.796;2023-06-26T04:08:27;7.90;;;5.30;;
58222;SDS011;44020;50.890;15.796;2023-06-26T04:10:54;8.90;;;5.20;;
58222;SDS011;44020;50.890;15.796;2023-06-26T04:13:24;6.60;;;5.20;;
58222;SDS011;44020;50.890;15.796;2023-06-26T04:15:52;6.60;;;5.00;;
58222;SDS011;44020;50.890;15.796;2023-06-26T04:18:20;7.20;;;5.60;;
58222;SDS011;44020;50.890;15.796;2023-06-26T04:21:07;6.40;;;5.30;;
58222;SDS011;44020;50.890;15.796;2023-06-26T04:23:36;6.60;;;5.00;;
58222;SDS011;44020;50.890;15.796;2023-06-26T04:26:05;8.60;;;5.70;;
58222;SDS011;44020;50.890;15.796;2023-06-26T04:28:34;8.10;;;5.60;;
58222;SDS011;44020;50.890;15.796;2023-06-26T04:31:02;10.00;;;5.80;;
58222;SDS011;44020;50.890;15.796;2023-06-26T04:33:33;7.60;;;5.50;;
58222;SDS011;44020;50.890;15.796;2023-06-26T04:36:03;8.50;;;6.20;;
58222;SDS011;44020;50.890;15.796;2023-06-26T04:38:32;9.70;;;5.60;;
58222;SDS011;44020;50.890;15.796;2023-06-26T04:41:00;7.50;;;5.40;;
58222;SDS011;44020;50.890;15.796;2023-06-26T04:43:28;8.40;;;5.50;;
58222;SDS011;44020;50.890;15.796;2023-06-26T04:45:56;7.20;;;5.30;;
58222;SDS011;44020;50.890;15.796;2023-06-26T04:48:24;8.70;;;5.60;;
58222;SDS011;44020;50.890;15.796;2023-06-26T04:50:51;10.20;;;6.10;;
58222;SDS011;44020;50.890;15.796;2023-06-26T04:53:22;9.90;;;5.80;;
58222;SDS011;44020;50.890;15.796;2023-06-26T04:55:50;7.10;;;5.10;;
58222;SDS011;44020;50.890;15.796;2023-06-26T04:58:18;7.30;;;5.80;;
58222;SDS011;44020;50.890;15.796;2023-06-26T05:00:47;11.10;;;5.50;;
58222;SDS011;44020;50.890;15.796;2023-06-26T05:03:16;9.00;;;5.70;;
58222;SDS011;44020;50.890;15.796;2023-06-26T05:05:44;8.40;;;5.70;;
58222;SDS011;44020;50.890;15.796;2023-06-26T05:08:20;8.00;;;5.60;;
58222;SDS011;44020;50.890;15.796;2023-06-26T05:10:53;6.70;;;5.50;;
58222;SDS011;44020;50.890;15.796;2023-06-26T05:13:25;9.30;;;5.40;;
58222;SDS011;44020;50.890;15.796;2023-06-26T05:15:53;6.10;;;5.40;;
58222;SDS011;44020;50.890;15.796;2023-06-26T05:18:21;9.10;;;5.60;;
58222;SDS011;44020;50.890;15.796;2023-06-26T05:20:48;6.80;;;5.40;;
58222;SDS011;44020;50.890;15.796;2023-06-26T05:23:16;8.50;;;5.60;;
58222;SDS011;44020;50.890;15.796;2023-06-26T05:25:44;10.80;;;5.90;;
58222;SDS011;44020;50.890;15.796;2023-06-26T05:28:12;7.00;;;5.40;;
58222;SDS011;44020;50.890;15.796;2023-06-26T05:30:41;6.60;;;5.60;;
58222;SDS011;44020;50.890;15.796;2023-06-26T05:33:13;7.60;;;5.60;;
58222;SDS011;44020;50.890;15.796;2023-06-26T05:35:45;8.10;;;5.50;;
58222;SDS011;44020;50.890;15.796;2023-06-26T05:38:15;9.70;;;5.20;;
58222;SDS011;44020;50.890;15.796;2023-06-26T05:40:43;6.30;;;5.00;;
58222;SDS011;44020;50.890;15.796;2023-06-26T05:43:11;8.00;;;5.50;;
58222;SDS011;44020;50.890;15.796;2023-06-26T05:45:38;6.60;;;5.60;;
58222;SDS011;44020;50.890;15.796;2023-06-26T05:48:07;7.40;;;4.90;;
58222;SDS011;44020;50.890;15.796;2023-06-26T05:50:34;9.80;;;5.20;;
58222;SDS011;44020;50.890;15.796;2023-06-26T05:53:02;5.60;;;4.80;;
58222;SDS011;44020;50.890;15.796;2023-06-26T05:55:30;6.20;;;4.50;;
58222;SDS011;44020;50.890;15.796;2023-06-26T05:57:58;6.30;;;4.80;;
58222;SDS011;44020;50.890;15.796;2023-06-26T06:00:27;5.40;;;4.50;;
58222;SDS011;44020;50.890;15.796;2023-06-26T06:02:54;7.10;;;4.70;;
58222;SDS011;44020;50.890;15.796;2023-06-26T06:05:22;7.10;;;4.40;;
58222;SDS011;44020;50.890;15.796;2023-06-26T06:07:50;6.50;;;5.10;;
58222;SDS011;44020;50.890;15.796;2023-06-26T06:10:17;6.70;;;5.30;;
58222;SDS011;44020;50.890;15.796;2023-06-26T06:12:44;6.20;;;4.70;;
58222;SDS011;44020;50.890;15.796;2023-06-26T06:15:12;6.80;;;5.10;;
58222;SDS011;44020;50.890;15.796;2023-06-26T06:17:40;7.10;;;5.20;;
58222;SDS011;44020;50.890;15.796;2023-06-26T06:20:08;6.30;;;4.20;;
58222;SDS011;44020;50.890;15.796;2023-06-26T06:22:36;5.70;;;4.60;;
58222;SDS011;44020;50.890;15.796;2023-06-26T06:25:03;6.00;;;4.50;;
58222;SDS011;44020;50.890;15.796;2023-06-26T06:27:30;6.60;;;4.30;;
58222;SDS011;44020;50.890;15.796;2023-06-26T06:29:58;7.80;;;4.70;;
58222;SDS011;44020;50.890;15.796;2023-06-26T06:32:25;8.50;;;4.30;;
58222;SDS011;44020;50.890;15.796;2023-06-26T06:34:52;5.10;;;4.20;;
58222;SDS011;44020;50.890;15.796;2023-06-26T06:37:19;6.20;;;4.60;;
58222;SDS011;44020;50.890;15.796;2023-06-26T06:39:46;8.10;;;4.90;;
58222;SDS011;44020;50.890;15.796;2023-06-26T06:42:13;7.30;;;4.30;;
58222;SDS011;44020;50.890;15.796;2023-06-26T06:44:41;5.60;;;4.50;;
58222;SDS011;44020;50.890;15.796;2023-06-26T06:47:08;6.50;;;4.20;;
58222;SDS011;44020;50.890;15.796;2023-06-26T06:49:35;5.90;;;4.10;;
58222;SDS011;44020;50.890;15.796;2023-06-26T06:52:03;5.90;;;3.80;;
58222;SDS011;44020;50.890;15.796;2023-06-26T06:54:30;6.40;;;3.90;;
58222;SDS011;44020;50.890;15.796;2023-06-26T06:56:57;4.50;;;3.60;;
58222;SDS011;44020;50.890;15.796;2023-06-26T06:59:25;5.50;;;3.90;;
58222;SDS011;44020;50.890;15.796;2023-06-26T07:01:52;5.90;;;3.50;;
58222;SDS011;44020;50.890;15.796;2023-06-26T07:04:19;6.70;;;4.00;;
58222;SDS011;44020;50.890;15.796;2023-06-26T07:06:47;5.60;;;3.50;;
58222;SDS011;44020;50.890;15.796;2023-06-26T07:09:14;4.20;;;3.40;;
58222;SDS011;44020;50.890;15.796;2023-06-26T07:11:41;4.70;;;3.70;;
58222;SDS011;44020;50.890;15.796;2023-06-26T07:14:08;5.40;;;3.60;;
58222;SDS011;44020;50.890;15.796;2023-06-26T07:16:36;6.10;;;3.80;;
58222;SDS011;44020;50.890;15.796;2023-06-26T07:19:04;5.40;;;3.80;;
58222;SDS011;44020;50.890;15.796;2023-06-26T07:21:31;8.20;;;4.20;;
58222;SDS011;44020;50.890;15.796;2023-06-26T07:23:58;4.70;;;3.40;;
58222;SDS011;44020;50.890;15.796;2023-06-26T07:26:25;4.60;;;3.50;;
58222;SDS011;44020;50.890;15.796;2023-06-26T07:28:52;3.70;;;3.10;;
58222;SDS011;44020;50.890;15.796;2023-06-26T07:31:21;7.50;;;3.70;;
58222;SDS011;44020;50.890;15.796;2023-06-26T07:33:48;4.70;;;3.60;;
58222;SDS011;44020;50.890;15.796;2023-06-26T07:36:15;3.60;;;3.20;;
58222;SDS011;44020;50.890;15.796;2023-06-26T07:38:43;4.80;;;3.40;;
58222;SDS011;44020;50.890;15.796;2023-06-26T07:41:10;5.80;;;3.60;;
58222;SDS011;44020;50.890;15.796;2023-06-26T07:43:37;4.30;;;3.70;;
58222;SDS011;44020;50.890;15.796;2023-06-26T07:46:05;4.40;;;3.40;;
58222;SDS011;44020;50.890;15.796;2023-06-26T07:48:32;4.70;;;3.40;;
58222;SDS011;44020;50.890;15.796;2023-06-26T07:50:59;4.10;;;3.50;;
58222;SDS011;44020;50.890;15.796;2023-06-26T07:53:26;3.70;;;3.10;;
58222;SDS011;44020;50.890;15.796;2023-06-26T07:55:53;3.80;;;3.20;;
58222;SDS011;44020;50.890;15.796;2023-06-26T07:58:20;4.70;;;3.20;;
58222;SDS011;44020;50.890;15.796;2023-06-26T08:00:48;4.40;;;3.20;;
58222;SDS011;44020;50.890;15.796;2023-06-26T08:03:15;5.10;;;3.20;;
58222;SDS011;44020;50.890;15.796;2023-06-26T08:05:43;5.20;;;3.10;;
58222;SDS011;44020;50.890;15.796;2023-06-26T08:08:11;4.20;;;3.40;;
58222;SDS011;44020;50.890;15.796;2023-06-26T08:10:38;4.70;;;2.80;;
58222;SDS011;44020;50.890;15.796;2023-06-26T08:13:05;4.60;;;3.00;;
58222;SDS011;44020;50.890;15.796;2023-06-26T08:15:33;3.50;;;2.60;;
58222;SDS011;44020;50.890;15.796;2023-06-26T08:18:01;3.50;;;2.80;;
58222;SDS011;44020;50.890;15.796;2023-06-26T08:20:28;3.80;;;3.10;;
58222;SDS011;44020;50.890;15.796;2023-06-26T08:22:56;5.60;;;3.20;;
58222;SDS011;44020;50.890;15.796;2023-06-26T08:25:23;4.70;;;3.00;;
58222;SDS011;44020;50.890;15.796;2023-06-26T08:27:51;4.90;;;2.90;;
58222;SDS011;44020;50.890;15.796;2023-06-26T08:30:19;3.90;;;3.10;;
58222;SDS011;44020;50.890;15.796;2023-06-26T08:32:46;5.20;;;2.90;;
58222;SDS011;44020;50.890;15.796;2023-06-26T08:35:14;5.40;;;3.10;;
58222;SDS011;44020;50.890;15.796;2023-06-26T08:37:42;4.00;;;3.30;;
58222;SDS011;44020;50.890;15.796;2023-06-26T08:40:09;5.00;;;3.10;;
58222;SDS011;44020;50.890;15.796;2023-06-26T08:42:37;3.90;;;3.30;;
58222;SDS011;44020;50.890;15.796;2023-06-26T08:45:05;5.20;;;2.90;;
58222;SDS011;44020;50.890;15.796;2023-06-26T08:47:33;6.60;;;3.00;;
58222;SDS011;44020;50.890;15.796;2023-06-26T08:52:52;4.00;;;3.30;;
58222;SDS011;44020;50.890;15.796;2023-06-26T08:55:25;6.70;;;3.10;;
58222;SDS011;44020;50.890;15.796;2023-06-26T08:57:55;4.40;;;3.00;;
58222;SDS011;44020;50.890;15.796;2023-06-26T09:00:23;3.20;;;2.90;;
58222;SDS011;44020;50.890;15.796;2023-06-26T09:02:51;4.80;;;3.00;;
58222;SDS011;44020;50.890;15.796;2023-06-26T09:05:19;3.70;;;2.80;;
58222;SDS011;44020;50.890;15.796;2023-06-26T09:07:46;4.60;;;3.20;;
58222;SDS011;44020;50.890;15.796;2023-06-26T09:10:13;3.90;;;3.10;;
58222;SDS011;44020;50.890;15.796;2023-06-26T09:12:41;3.20;;;2.90;;
58222;SDS011;44020;50.890;15.796;2023-06-26T09:17:42;3.90;;;3.30;;
58222;SDS011;44020;50.890;15.796;2023-06-26T09:20:09;4.80;;;3.00;;
58222;SDS011;44020;50.890;15.796;2023-06-26T09:22:40;6.00;;;3.40;;
58222;SDS011;44020;50.890;15.796;2023-06-26T09:25:08;3.90;;;3.00;;
58222;SDS011;44020;50.890;15.796;2023-06-26T09:27:37;3.80;;;3.30;;
58222;SDS011;44020;50.890;15.796;2023-06-26T09:30:05;3.60;;;2.70;;
58222;SDS011;44020;50.890;15.796;2023-06-26T09:32:36;5.90;;;3.80;;
58222;SDS011;44020;50.890;15.796;2023-06-26T09:35:04;3.50;;;3.00;;
58222;SDS011;44020;50.890;15.796;2023-06-26T09:37:34;3.40;;;2.80;;
58222;SDS011;44020;50.890;15.796;2023-06-26T09:40:02;4.30;;;3.10;;
58222;SDS011;44020;50.890;15.796;2023-06-26T09:42:31;3.20;;;2.80;;
58222;SDS011;44020;50.890;15.796;2023-06-26T09:44:58;3.50;;;3.20;;
58222;SDS011;44020;50.890;15.796;2023-06-26T09:47:25;4.70;;;3.10;;
58222;SDS011;44020;50.890;15.796;2023-06-26T09:49:52;4.20;;;3.30;;
58222;SDS011;44020;50.890;15.796;2023-06-26T09:52:21;3.80;;;3.10;;
58222;SDS011;44020;50.890;15.796;2023-06-26T09:55:07;4.40;;;3.00;;
58222;SDS011;44020;50.890;15.796;2023-06-26T09:57:35;4.20;;;2.80;;
58222;SDS011;44020;50.890;15.796;2023-06-26T10:00:03;3.00;;;2.70;;
58222;SDS011;44020;50.890;15.796;2023-06-26T10:02:31;4.00;;;3.00;;
58222;SDS011;44020;50.890;15.796;2023-06-26T10:04:58;3.20;;;2.90;;
58222;SDS011;44020;50.890;15.796;2023-06-26T10:07:26;3.80;;;3.20;;
58222;SDS011;44020;50.890;15.796;2023-06-26T10:09:54;3.40;;;3.10;;
58222;SDS011;44020;50.890;15.796;2023-06-26T10:12:27;4.20;;;3.20;;
58222;SDS011;44020;50.890;15.796;2023-06-26T10:14:56;4.30;;;3.10;;
58222;SDS011;44020;50.890;15.796;2023-06-26T10:17:25;4.10;;;3.10;;
58222;SDS011;44020;50.890;15.796;2023-06-26T10:19:57;5.10;;;2.80;;
58222;SDS011;44020;50.890;15.796;2023-06-26T10:22:29;4.40;;;3.50;;
58222;SDS011;44020;50.890;15.796;2023-06-26T10:25:02;4.50;;;3.30;;
58222;SDS011;44020;50.890;15.796;2023-06-26T10:27:38;4.30;;;3.10;;
58222;SDS011;44020;50.890;15.796;2023-06-26T10:30:12;3.40;;;3.00;;
58222;SDS011;44020;50.890;15.796;2023-06-26T10:32:43;3.40;;;3.10;;
58222;SDS011;44020;50.890;15.796;2023-06-26T10:35:11;4.10;;;3.10;;
58222;SDS011;44020;50.890;15.796;2023-06-26T10:37:42;4.40;;;3.60;;
58222;SDS011;44020;50.890;15.796;2023-06-26T10:40:11;4.90;;;3.50;;
58222;SDS011;44020;50.890;15.796;2023-06-26T10:42:40;4.10;;;3.40;;
58222;SDS011;44020;50.890;15.796;2023-06-26T10:45:20;3.90;;;3.40;;
58222;SDS011;44020;50.890;15.796;2023-06-26T10:47:48;3.70;;;3.20;;
58222;SDS011;44020;50.890;15.796;2023-06-26T10:50:21;3.50;;;3.00;;
58222;SDS011;44020;50.890;15.796;2023-06-26T10:53:10;4.50;;;3.60;;
58222;SDS011;44020;50.890;15.796;2023-06-26T10:55:37;4.40;;;3.30;;
58222;SDS011;44020;50.890;15.796;2023-06-26T10:58:28;3.80;;;3.40;;
58222;SDS011;44020;50.890;15.796;2023-06-26T11:06:10;5.40;;;3.20;;
58222;SDS011;44020;50.890;15.796;2023-06-26T11:08:48;3.60;;;3.20;;
58222;SDS011;44020;50.890;15.796;2023-06-26T11:14:20;4.80;;;3.50;;
58222;SDS011;44020;50.890;15.796;2023-06-26T11:16:49;4.10;;;3.20;;
58222;SDS011;44020;50.890;15.796;2023-06-26T11:19:17;4.50;;;3.90;;
58222;SDS011;44020;50.890;15.796;2023-06-26T11:21:46;4.10;;;3.40;;
58222;SDS011;44020;50.890;15.796;2023-06-26T11:24:14;4.70;;;3.40;;
58222;SDS011;44020;50.890;15.796;2023-06-26T11:26:42;3.40;;;3.10;;
58222;SDS011;44020;50.890;15.796;2023-06-26T11:29:11;5.70;;;3.20;;
58222;SDS011;44020;50.890;15.796;2023-06-26T11:31:39;3.80;;;3.30;;
58222;SDS011;44020;50.890;15.796;2023-06-26T11:34:08;3.30;;;2.90;;
58222;SDS011;44020;50.890;15.796;2023-06-26T11:36:38;4.00;;;3.40;;
58222;SDS011;44020;50.890;15.796;2023-06-26T11:39:09;3.30;;;2.80;;
58222;SDS011;44020;50.890;15.796;2023-06-26T11:41:37;3.60;;;3.20;;
58222;SDS011;44020;50.890;15.796;2023-06-26T11:44:08;5.90;;;3.30;;
58222;SDS011;44020;50.890;15.796;2023-06-26T11:46:37;4.10;;;3.10;;
58222;SDS011;44020;50.890;15.796;2023-06-26T11:49:05;4.20;;;3.40;;
58222;SDS011;44020;50.890;15.796;2023-06-26T11:51:34;4.10;;;3.50;;
58222;SDS011;44020;50.890;15.796;2023-06-26T11:54:05;4.10;;;3.40;;
58222;SDS011;44020;50.890;15.796;2023-06-26T11:56:32;4.20;;;3.50;;
58222;SDS011;44020;50.890;15.796;2023-06-26T12:04:03;5.30;;;3.80;;
58222;SDS011;44020;50.890;15.796;2023-06-26T12:06:33;3.10;;;2.80;;
58222;SDS011;44020;50.890;15.796;2023-06-26T12:09:02;3.80;;;3.10;;
58222;SDS011;44020;50.890;15.796;2023-06-26T12:11:32;4.10;;;3.00;;
58222;SDS011;44020;50.890;15.796;2023-06-26T12:14:01;3.70;;;3.30;;
58222;SDS011;44020;50.890;15.796;2023-06-26T12:16:29;3.30;;;2.70;;
58222;SDS011;44020;50.890;15.796;2023-06-26T12:19:00;4.00;;;3.10;;
58222;SDS011;44020;50.890;15.796;2023-06-26T12:24:06;3.20;;;2.90;;
58222;SDS011;44020;50.890;15.796;2023-06-26T12:26:34;5.10;;;3.20;;
58222;SDS011;44020;50.890;15.796;2023-06-26T12:29:06;4.10;;;3.60;;
58222;SDS011;44020;50.890;15.796;2023-06-26T12:31:35;3.50;;;3.10;;
58222;SDS011;44020;50.890;15.796;2023-06-26T12:34:13;4.30;;;2.90;;
58222;SDS011;44020;50.890;15.796;2023-06-26T12:36:46;3.40;;;3.00;;
58222;SDS011;44020;50.890;15.796;2023-06-26T12:39:15;3.40;;;3.00;;
58222;SDS011;44020;50.890;15.796;2023-06-26T12:41:48;4.40;;;3.60;;
58222;SDS011;44020;50.890;15.796;2023-06-26T12:44:21;7.30;;;3.50;;
58222;SDS011;44020;50.890;15.796;2023-06-26T12:46:56;4.30;;;3.10;;
58222;SDS011;44020;50.890;15.796;2023-06-26T12:49:34;3.40;;;3.10;;
58222;SDS011;44020;50.890;15.796;2023-06-26T12:52:06;6.40;;;3.20;;
58222;SDS011;44020;50.890;15.796;2023-06-26T12:54:36;4.40;;;3.40;;
58222;SDS011;44020;50.890;15.796;2023-06-26T12:57:05;3.70;;;3.10;;
58222;SDS011;44020;50.890;15.796;2023-06-26T12:59:34;4.10;;;3.20;;
58222;SDS011;44020;50.890;15.796;2023-06-26T13:02:03;4.10;;;3.30;;
58222;SDS011;44020;50.890;15.796;2023-06-26T13:04:32;3.60;;;3.00;;
58222;SDS011;44020;50.890;15.796;2023-06-26T13:07:00;3.90;;;3.00;;
58222;SDS011;44020;50.890;15.796;2023-06-26T13:09:31;4.90;;;2.80;;
58222;SDS011;44020;50.890;15.796;2023-06-26T13:12:00;4.00;;;2.90;;
58222;SDS011;44020;50.890;15.796;2023-06-26T13:14:30;3.60;;;3.00;;
58222;SDS011;44020;50.890;15.796;2023-06-26T13:16:58;3.90;;;3.20;;
58222;SDS011;44020;50.890;15.796;2023-06-26T13:19:27;4.90;;;3.10;;
58222;SDS011;44020;50.890;15.796;2023-06-26T13:21:54;4.70;;;3.70;;
58222;SDS011;44020;50.890;15.796;2023-06-26T13:24:22;5.20;;;3.30;;
58222;SDS011;44020;50.890;15.796;2023-06-26T13:26:49;4.20;;;3.60;;
58222;SDS011;44020;50.890;15.796;2023-06-26T13:29:16;4.30;;;3.60;;
58222;SDS011;44020;50.890;15.796;2023-06-26T13:31:44;4.20;;;3.50;;
58222;SDS011;44020;50.890;15.796;2023-06-26T13:34:21;4.50;;;3.40;;
58222;SDS011;44020;50.890;15.796;2023-06-26T13:36:49;3.70;;;3.30;;
58222;SDS011;44020;50.890;15.796;2023-06-26T13:39:17;4.90;;;3.50;;
58222;SDS011;44020;50.890;15.796;2023-06-26T13:41:44;4.10;;;3.20;;
58222;SDS011;44020;50.890;15.796;2023-06-26T13:44:12;3.60;;;3.30;;
58222;SDS011;44020;50.890;15.796;2023-06-26T13:46:39;4.50;;;3.30;;
58222;SDS011;44020;50.890;15.796;2023-06-26T13:49:06;3.40;;;3.10;;
58222;SDS011;44020;50.890;15.796;2023-06-26T13:51:34;3.90;;;3.50;;
58222;SDS011;44020;50.890;15.796;2023-06-26T13:54:01;4.00;;;3.60;;
58222;SDS011;44020;50.890;15.796;2023-06-26T13:56:29;3.50;;;3.20;;
58222;SDS011;44020;50.890;15.796;2023-06-26T13:58:57;4.80;;;3.40;;
58222;SDS011;44020;50.890;15.796;2023-06-26T14:01:25;3.70;;;3.30;;
58222;SDS011;44020;50.890;15.796;2023-06-26T14:03:52;4.90;;;3.10;;
58222;SDS011;44020;50.890;15.796;2023-06-26T14:06:20;3.80;;;3.40;;
58222;SDS011;44020;50.890;15.796;2023-06-26T14:08:54;3.90;;;3.00;;
58222;SDS011;44020;50.890;15.796;2023-06-26T14:11:23;6.20;;;3.40;;
58222;SDS011;44020;50.890;15.796;2023-06-26T14:13:53;5.50;;;3.20;;
58222;SDS011;44020;50.890;15.796;2023-06-26T14:16:20;3.70;;;3.30;;
58222;SDS011;44020;50.890;15.796;2023-06-26T14:18:48;3.70;;;3.10;;
58222;SDS011;44020;50.890;15.796;2023-06-26T14:21:15;4.20;;;3.50;;
58222;SDS011;44020;50.890;15.796;2023-06-26T14:23:43;3.60;;;3.10;;
58222;SDS011;44020;50.890;15.796;2023-06-26T14:26:11;4.40;;;3.60;;
58222;SDS011;44020;50.890;15.796;2023-06-26T14:28:38;3.90;;;3.30;;
58222;SDS011;44020;50.890;15.796;2023-06-26T14:31:06;3.50;;;3.20;;
58222;SDS011;44020;50.890;15.796;2023-06-26T14:33:33;3.30;;;3.00;;
58222;SDS011;44020;50.890;15.796;2023-06-26T14:36:02;4.40;;;3.30;;
58222;SDS011;44020;50.890;15.796;2023-06-26T14:38:30;3.40;;;3.10;;
58222;SDS011;44020;50.890;15.796;2023-06-26T14:40:57;4.80;;;3.50;;
58222;SDS011;44020;50.890;15.796;2023-06-26T14:43:24;4.00;;;3.50;;
58222;SDS011;44020;50.890;15.796;2023-06-26T14:45:51;3.80;;;3.40;;
58222;SDS011;44020;50.890;15.796;2023-06-26T14:48:19;4.50;;;3.30;;
58222;SDS011;44020;50.890;15.796;2023-06-26T14:50:46;4.50;;;3.40;;
58222;SDS011;44020;50.890;15.796;2023-06-26T14:53:14;6.20;;;3.70;;
58222;SDS011;44020;50.890;15.796;2023-06-26T14:55:42;4.50;;;3.60;;
58222;SDS011;44020;50.890;15.796;2023-06-26T14:58:10;4.00;;;3.60;;
58222;SDS011;44020;50.890;15.796;2023-06-26T15:00:37;3.90;;;3.50;;
58222;SDS011;44020;50.890;15.796;2023-06-26T15:03:05;4.00;;;3.20;;
58222;SDS011;44020;50.890;15.796;2023-06-26T15:05:32;4.40;;;3.40;;
58222;SDS011;44020;50.890;15.796;2023-06-26T15:08:00;8.30;;;3.80;;
58222;SDS011;44020;50.890;15.796;2023-06-26T15:10:27;5.30;;;3.40;;
58222;SDS011;44020;50.890;15.796;2023-06-26T15:12:54;5.90;;;3.40;;
58222;SDS011;44020;50.890;15.796;2023-06-26T15:15:22;3.80;;;3.20;;